createdAt,value
2023-02-19T00:01:45.130Z,-8.04
2023-02-19T00:04:16.287Z,-8.27
2023-02-19T00:06:43.901Z,-8.04
2023-02-19T00:09:11.747Z,-8.35
2023-02-19T00:11:38.763Z,-8.21
2023-02-19T00:14:05.667Z,-8.15
2023-02-19T00:21:28.349Z,-8.22
2023-02-19T00:24:01.868Z,-8.03
2023-02-19T00:31:22.363Z,-8.20
2023-02-19T00:33:51.337Z,-8.37
2023-02-19T00:36:18.357Z,-8.11
2023-02-19T00:38:46.053Z,-8.11
2023-02-19T00:41:14.722Z,-8.19
2023-02-19T00:43:41.199Z,-7.69
2023-02-19T00:53:27.522Z,-8.05
2023-02-19T00:55:54.041Z,-8.14
2023-02-19T00:58:20.501Z,-8.22
2023-02-19T01:00:47.181Z,-8.17
2023-02-19T01:03:13.777Z,-8.03
2023-02-19T01:05:40.334Z,-8.16
2023-02-19T01:08:07.008Z,-8.20
2023-02-19T01:10:33.643Z,-8.10
2023-02-19T01:13:00.242Z,-8.01
2023-02-19T01:15:26.891Z,-8.13
2023-02-19T01:17:53.496Z,-8.16
2023-02-19T01:20:19.952Z,-8.11
2023-02-19T01:22:46.508Z,-8.23
2023-02-19T01:25:13.231Z,-8.32
2023-02-19T01:27:39.774Z,-8.34
2023-02-19T01:30:06.689Z,-8.22
2023-02-19T01:32:33.402Z,-8.09
2023-02-19T01:34:59.906Z,-8.16
2023-02-19T01:37:26.754Z,-8.20
2023-02-19T01:39:53.349Z,-7.98
2023-02-19T01:42:19.937Z,-7.83
2023-02-19T01:44:46.415Z,-7.76
2023-02-19T01:47:14.906Z,-8.02
2023-02-19T01:49:54.847Z,-8.08
2023-02-19T01:52:26.536Z,-8.10
2023-02-19T01:54:54.426Z,-8.17
2023-02-19T01:57:24.313Z,-8.11
2023-02-19T01:59:54.541Z,-8.15
2023-02-19T02:02:22.445Z,-8.21
2023-02-19T02:04:48.978Z,-7.72
2023-02-19T02:07:16.431Z,-8.22
2023-02-19T02:09:42.949Z,-8.13
2023-02-19T02:12:09.428Z,-8.32
2023-02-19T02:17:12.604Z,-8.27
2023-02-19T02:20:00.565Z,-8.21
2023-02-19T02:22:34.944Z,-8.53
2023-02-19T02:25:31.956Z,-8.32
2023-02-19T02:28:13.600Z,-8.22
2023-02-19T02:31:02.876Z,-8.11
2023-02-19T02:33:47.735Z,-8.37
2023-02-19T02:36:22.247Z,-8.28
2023-02-19T02:38:50.124Z,-8.32
2023-02-19T02:41:16.842Z,-8.09
2023-02-19T02:43:43.592Z,-7.94
2023-02-19T02:46:19.812Z,-8.06
2023-02-19T02:48:51.326Z,-8.25
2023-02-19T02:51:34.438Z,-8.09
2023-02-19T02:54:08.205Z,-7.92
2023-02-19T02:56:35.809Z,-8.15
2023-02-19T02:59:05.429Z,-8.28
2023-02-19T03:01:52.202Z,-8.47
2023-02-19T03:04:44.600Z,-8.55
2023-02-19T03:07:12.201Z,-8.35
2023-02-19T03:09:42.667Z,-8.19
2023-02-19T03:12:15.546Z,-8.36
2023-02-19T03:14:51.371Z,-8.42
2023-02-19T03:17:29.101Z,-8.56
2023-02-19T03:19:58.564Z,-8.43
2023-02-19T03:22:31.733Z,-8.42
2023-02-19T03:25:07.361Z,-8.38
2023-02-19T03:27:38.124Z,-8.51
2023-02-19T03:30:11.245Z,-8.32
2023-02-19T03:32:48.737Z,-8.36
2023-02-19T03:35:23.231Z,-8.10
2023-02-19T03:37:55.356Z,-7.99
2023-02-19T03:40:26.068Z,-8.09
2023-02-19T03:43:19.933Z,-8.01
2023-02-19T03:45:55.467Z,-8.01
2023-02-19T03:48:30.239Z,-7.96
2023-02-19T03:56:35.235Z,-8.24
2023-02-19T03:59:19.094Z,-8.20
2023-02-19T04:02:19.270Z,-8.05
2023-02-19T04:04:51.873Z,-8.13
2023-02-19T04:07:18.697Z,-8.19
2023-02-19T04:09:49.523Z,-7.91
2023-02-19T04:12:18.223Z,-8.21
2023-02-19T04:15:10.184Z,-8.35
2023-02-19T04:17:42.289Z,-8.34
2023-02-19T04:20:10.741Z,-8.24
2023-02-19T04:22:39.056Z,-8.13
2023-02-19T04:25:06.382Z,-8.21
2023-02-19T04:27:36.931Z,-8.13
2023-02-19T04:30:05.180Z,-8.26
2023-02-19T04:32:31.786Z,-8.24
2023-02-19T04:34:58.329Z,-8.19
2023-02-19T04:37:24.909Z,-8.18
2023-02-19T04:39:51.545Z,-8.24
2023-02-19T04:42:18.013Z,-7.76
2023-02-19T04:44:44.590Z,-7.87
2023-02-19T04:47:11.175Z,-8.03
2023-02-19T04:49:38.263Z,-7.89
2023-02-19T04:52:04.854Z,-8.13
2023-02-19T04:54:31.491Z,-8.19
2023-02-19T05:06:43.669Z,-8.06
2023-02-19T05:09:10.292Z,-7.70
2023-02-19T05:11:37.010Z,-7.94
2023-02-19T05:14:03.613Z,-8.13
2023-02-19T05:16:30.353Z,-7.96
2023-02-19T05:18:56.882Z,-7.93
2023-02-19T05:21:23.387Z,-7.69
2023-02-19T05:23:50.068Z,-7.83
2023-02-19T05:26:19.670Z,-7.99
2023-02-19T05:28:48.181Z,-7.67
2023-02-19T05:33:41.768Z,-7.74
2023-02-19T05:38:37.228Z,-7.58
2023-02-19T05:41:30.500Z,-7.45
2023-02-19T05:43:57.822Z,-7.53
2023-02-19T05:46:27.162Z,-7.50
2023-02-19T05:48:55.364Z,-7.46
2023-02-19T05:53:50.484Z,-6.98
2023-02-19T05:56:26.058Z,-7.58
2023-02-19T05:58:53.854Z,-7.09
2023-02-19T06:01:22.641Z,-7.36
2023-02-19T06:03:49.432Z,-7.38
2023-02-19T06:06:17.665Z,-6.85
2023-02-19T06:08:44.524Z,-6.86
2023-02-19T06:11:11.401Z,-7.33
2023-02-19T06:16:05.849Z,-7.20
2023-02-19T06:18:33.025Z,-6.77
2023-02-19T06:23:32.830Z,-6.75
2023-02-19T06:33:34.453Z,-5.74
2023-02-19T06:36:03.322Z,-6.33
2023-02-19T06:38:30.781Z,-5.90
2023-02-19T06:41:02.465Z,-6.19
2023-02-19T06:43:29.632Z,-6.46
2023-02-19T06:53:18.712Z,-5.97
2023-02-19T06:58:11.681Z,-5.83
2023-02-19T07:07:58.620Z,-6.12
2023-02-19T07:17:44.486Z,-5.77
2023-02-19T07:27:30.815Z,-5.29
2023-02-19T07:32:24.793Z,-5.48
2023-02-19T07:39:44.447Z,-5.08
2023-02-19T07:49:30.335Z,-5.41
2023-02-19T07:51:56.881Z,-5.29
2023-02-19T07:54:23.468Z,-5.36
2023-02-19T07:56:49.978Z,-5.72
2023-02-19T08:01:43.141Z,-5.32
2023-02-19T08:04:12.091Z,-5.37
2023-02-19T08:06:39.036Z,-5.53
2023-02-19T08:11:32.073Z,-5.23
2023-02-19T08:16:40.725Z,-4.88
2023-02-19T08:21:35.452Z,-4.49
2023-02-19T09:20:12.490Z,-4.40
2023-02-19T09:22:39.062Z,-3.68
2023-02-19T09:25:05.988Z,-4.39
2023-02-19T09:27:32.512Z,-4.07
2023-02-19T09:29:59.206Z,-4.58
2023-02-19T09:32:25.850Z,-4.28
2023-02-19T09:34:52.444Z,-3.40
2023-02-19T09:37:19.015Z,-4.20
2023-02-19T09:39:45.607Z,-4.53
2023-02-19T09:42:22.423Z,-4.18
2023-02-19T09:47:25.146Z,-4.04
2023-02-19T09:49:55.837Z,-4.41
2023-02-19T09:52:47.938Z,-4.21
2023-02-19T09:55:14.614Z,-3.70
2023-02-19T09:57:42.918Z,-3.84
2023-02-19T10:00:12.873Z,-3.62
2023-02-19T10:02:39.482Z,-3.94
2023-02-19T10:05:16.504Z,-4.06
2023-02-19T10:07:49.110Z,-4.50
2023-02-19T10:10:15.630Z,-3.98
2023-02-19T10:12:52.051Z,-4.05
2023-02-19T10:15:38.049Z,-3.97
2023-02-19T10:18:06.048Z,-3.46
2023-02-19T10:20:32.825Z,-3.77
2023-02-19T10:23:05.242Z,-4.10
2023-02-19T10:25:34.995Z,-3.78
2023-02-19T10:28:02.565Z,-4.15
2023-02-19T10:30:35.338Z,-4.02
2023-02-19T10:33:12.636Z,-4.07
2023-02-19T10:35:53.661Z,-4.23
2023-02-19T10:38:24.033Z,-4.18
2023-02-19T10:41:00.361Z,-3.68
2023-02-19T10:43:29.355Z,-3.12
2023-02-19T10:45:55.988Z,-3.06
2023-02-19T10:48:27.989Z,-3.11
2023-02-19T10:50:59.044Z,-3.46
2023-02-19T10:53:47.797Z,-3.60
2023-02-19T10:56:28.180Z,-3.39
2023-02-19T10:58:54.770Z,-3.25
2023-02-19T11:01:24.078Z,-2.86
2023-02-19T11:03:52.794Z,-2.88
2023-02-19T11:06:26.605Z,-2.64
2023-02-19T11:08:59.084Z,-2.51
2023-02-19T11:11:35.613Z,-2.71
2023-02-19T11:14:20.985Z,-2.59
2023-02-19T11:16:53.511Z,-2.37
2023-02-19T11:19:35.020Z,-2.69
2023-02-19T11:22:02.417Z,-2.76
2023-02-19T11:24:32.972Z,-2.81
2023-02-19T11:27:02.282Z,-2.81
2023-02-19T11:29:29.509Z,-3.03
2023-02-19T11:31:56.534Z,-2.51
2023-02-19T11:34:28.009Z,-2.27
2023-02-19T11:37:12.153Z,-2.35
2023-02-19T11:39:40.368Z,-2.60
2023-02-19T11:42:45.716Z,-2.75
2023-02-19T11:45:38.589Z,-2.98
2023-02-19T11:48:30.212Z,-2.79
2023-02-19T11:51:23.219Z,-2.56
2023-02-19T11:54:21.702Z,-2.44
2023-02-19T11:57:04.826Z,-2.50
2023-02-19T11:59:40.885Z,-2.22
2023-02-19T12:02:07.468Z,-2.31
2023-02-19T12:04:52.785Z,-2.53
2023-02-19T12:07:37.349Z,-2.78
2023-02-19T12:10:32.521Z,-2.48
2023-02-19T12:13:11.158Z,-2.36
2023-02-19T12:16:12.166Z,-2.62
2023-02-19T12:18:58.188Z,-2.87
2023-02-19T12:21:46.052Z,-2.67
2023-02-19T12:24:50.233Z,-2.18
2023-02-19T12:27:30.653Z,-2.01
2023-02-19T12:30:42.379Z,-2.18
2023-02-19T12:33:21.103Z,-2.27
2023-02-19T12:36:02.308Z,-2.47
2023-02-19T12:38:43.861Z,-2.32
2023-02-19T12:41:28.496Z,-2.36
2023-02-19T12:44:41.382Z,-2.87
2023-02-19T12:47:13.133Z,-2.34
2023-02-19T12:49:47.198Z,-2.21
2023-02-19T12:52:23.175Z,-2.25
2023-02-19T12:54:55.807Z,-2.41
2023-02-19T12:57:27.907Z,-2.16
2023-02-19T13:00:20.704Z,-2.39
2023-02-19T13:02:59.389Z,-2.53
2023-02-19T13:05:32.724Z,-2.58
2023-02-19T13:08:12.976Z,-3.00
2023-02-19T13:10:48.585Z,-2.49
2023-02-19T13:13:30.709Z,-2.21
2023-02-19T13:16:04.067Z,-2.48
2023-02-19T13:18:40.009Z,-2.31
2023-02-19T13:21:07.427Z,-2.27
2023-02-19T13:23:39.407Z,-2.15
2023-02-19T13:26:32.429Z,-2.09
2023-02-19T13:29:11.205Z,-2.11
2023-02-19T13:32:15.235Z,-2.14
2023-02-19T13:35:11.442Z,-1.79
2023-02-19T13:37:38.316Z,-1.75
2023-02-19T13:40:23.119Z,-1.60
2023-02-19T13:42:56.252Z,-1.56
2023-02-19T13:45:39.504Z,-1.59
2023-02-19T13:48:24.471Z,-1.77
2023-02-19T13:51:17.293Z,-1.61
2023-02-19T13:53:43.863Z,-1.59
2023-02-19T13:56:32.324Z,-1.52
2023-02-19T13:59:10.903Z,-1.53
2023-02-19T14:01:49.436Z,-1.52
2023-02-19T14:04:42.296Z,-1.50
2023-02-19T14:07:08.697Z,-1.54
2023-02-19T14:09:38.022Z,-1.47
2023-02-19T14:12:19.449Z,-1.41
2023-02-19T14:14:49.052Z,-1.39
2023-02-19T14:17:15.525Z,-1.43
2023-02-19T14:19:42.110Z,-1.35
2023-02-19T14:22:45.841Z,-1.35
2023-02-19T14:25:39.220Z,-1.30
2023-02-19T14:28:18.333Z,-1.37
2023-02-19T14:31:17.183Z,-1.32
2023-02-19T14:33:50.498Z,-1.31
2023-02-19T14:36:39.326Z,-1.31
2023-02-19T14:39:20.274Z,-1.31
2023-02-19T14:41:51.287Z,-1.47
2023-02-19T14:44:27.611Z,-1.37
2023-02-19T14:47:05.729Z,-1.38
2023-02-19T14:49:35.771Z,-1.66
2023-02-19T14:52:08.494Z,-1.50
2023-02-19T14:54:52.271Z,-1.54
2023-02-19T14:57:32.740Z,-1.51
2023-02-19T15:00:01.802Z,-1.48
2023-02-19T15:02:32.090Z,-1.43
2023-02-19T15:04:58.831Z,-1.45
2023-02-19T15:07:29.979Z,-1.44
2023-02-19T15:10:00.882Z,-1.41
2023-02-19T15:12:34.118Z,-1.42
2023-02-19T15:15:03.514Z,-1.41
2023-02-19T15:17:33.507Z,-1.41
2023-02-19T15:20:05.557Z,-1.46
2023-02-19T15:22:32.643Z,-1.48
2023-02-19T15:25:03.794Z,-1.44
2023-02-19T15:27:31.237Z,-1.50
2023-02-19T15:29:57.721Z,-1.44
2023-02-19T15:32:26.521Z,-1.38
2023-02-19T15:34:58.468Z,-1.37
2023-02-19T15:37:29.875Z,-1.34
2023-02-19T15:39:58.889Z,-1.33
2023-02-19T15:42:30.808Z,-1.31
2023-02-19T15:45:00.248Z,-1.29
2023-02-19T15:47:49.316Z,-1.31
2023-02-19T15:50:22.502Z,-1.30
2023-02-19T15:53:05.295Z,-1.42
2023-02-19T15:55:31.752Z,-1.47
2023-02-19T15:58:09.566Z,-1.48
2023-02-19T16:00:41.779Z,-1.40
2023-02-19T16:03:17.234Z,-1.24
2023-02-19T16:05:43.837Z,-1.21
2023-02-19T16:08:19.893Z,-1.19
2023-02-19T16:11:01.160Z,-1.12
2023-02-19T16:13:30.331Z,-1.08
2023-02-19T16:16:26.285Z,-1.06
2023-02-19T16:18:53.563Z,-1.06
2023-02-19T16:21:22.602Z,-1.05
2023-02-19T16:23:56.689Z,-1.06
2023-02-19T16:26:23.198Z,-1.05
2023-02-19T16:28:52.725Z,-1.07
2023-02-19T16:31:22.494Z,-1.08
2023-02-19T16:33:50.425Z,-1.08
2023-02-19T16:36:34.022Z,-1.05
2023-02-19T16:39:14.523Z,-1.05
2023-02-19T16:41:41.018Z,-1.02
2023-02-19T16:44:25.943Z,-1.00
2023-02-19T16:47:06.951Z,-0.97
2023-02-19T16:49:33.818Z,-0.95
2023-02-19T16:52:04.082Z,-0.92
2023-02-19T16:54:31.052Z,-0.92
2023-02-19T16:56:57.599Z,-0.91
2023-02-19T16:59:24.148Z,-0.89
2023-02-19T17:01:50.782Z,-0.88
2023-02-19T17:04:17.344Z,-0.85
2023-02-19T17:06:43.921Z,-0.83
2023-02-19T17:09:10.582Z,-0.80
2023-02-19T17:11:37.396Z,-0.79
2023-02-19T17:14:03.960Z,-0.78
2023-02-19T17:16:32.916Z,-0.77
2023-02-19T17:18:59.538Z,-0.76
2023-02-19T17:21:28.499Z,-0.74
2023-02-19T17:23:55.769Z,-0.72
2023-02-19T17:26:25.402Z,-0.73
2023-02-19T17:28:52.140Z,-0.72
2023-02-19T17:31:18.988Z,-0.71
2023-02-19T17:33:45.592Z,-0.71
2023-02-19T17:36:32.739Z,-0.70
2023-02-19T17:39:00.703Z,-0.70
2023-02-19T17:41:27.949Z,-0.72
2023-02-19T17:43:54.709Z,-0.71
2023-02-19T17:46:24.192Z,-0.69
2023-02-19T17:48:51.478Z,-0.69
2023-02-19T17:51:18.050Z,-0.68
2023-02-19T17:53:45.069Z,-0.66
2023-02-19T17:56:18.904Z,-0.65
2023-02-19T17:58:46.251Z,-0.64
2023-02-19T18:01:13.481Z,-0.64
2023-02-19T18:03:40.464Z,-0.63
2023-02-19T18:06:07.336Z,-0.62
2023-02-19T18:08:34.167Z,-0.62
2023-02-19T18:11:00.845Z,-0.63
2023-02-19T18:13:27.354Z,-0.63
2023-02-19T18:15:53.966Z,-0.63
2023-02-19T18:18:21.314Z,-0.64
2023-02-19T18:20:47.791Z,-0.65
2023-02-19T18:23:14.453Z,-0.65
2023-02-19T18:25:41.111Z,-0.64
2023-02-19T18:28:07.642Z,-0.64
2023-02-19T18:30:34.270Z,-0.63
2023-02-19T18:33:01.642Z,-0.62
2023-02-19T18:35:28.124Z,-0.59
2023-02-19T18:37:54.888Z,-0.59
2023-02-19T18:40:23.297Z,-0.58
2023-02-19T18:42:49.819Z,-0.57
2023-02-19T18:45:16.501Z,-0.57
2023-02-19T18:47:47.185Z,-0.55
2023-02-19T18:50:16.793Z,-0.57
2023-02-19T18:52:43.281Z,-0.56
2023-02-19T18:55:11.877Z,-0.55
2023-02-19T18:57:38.454Z,-0.55
2023-02-19T19:00:06.523Z,-0.56
2023-02-19T19:02:48.354Z,-0.57
2023-02-19T19:05:18.180Z,-0.58
2023-02-19T19:07:44.790Z,-0.59
2023-02-19T19:10:11.406Z,-0.57
2023-02-19T19:12:37.901Z,-0.59
2023-02-19T19:15:04.782Z,-0.61
2023-02-19T19:17:31.299Z,-0.60
2023-02-19T19:19:57.805Z,-0.60
2023-02-19T19:22:25.050Z,-0.60
2023-02-19T19:24:51.617Z,-0.59
2023-02-19T19:27:19.741Z,-0.57
2023-02-19T19:29:46.765Z,-0.58
2023-02-19T19:32:14.134Z,-0.57
2023-02-19T19:34:41.213Z,-0.56
2023-02-19T19:37:07.893Z,-0.56
2023-02-19T19:39:34.514Z,-0.56
2023-02-19T19:42:01.012Z,-0.55
2023-02-19T19:44:27.970Z,-0.55
2023-02-19T19:46:54.586Z,-0.54
2023-02-19T19:49:22.852Z,-0.53
2023-02-19T19:51:49.610Z,-0.53
2023-02-19T19:54:16.138Z,-0.52
2023-02-19T19:56:44.395Z,-0.53
2023-02-19T19:59:15.157Z,-0.52
2023-02-19T20:01:52.353Z,-0.54
2023-02-19T20:04:21.489Z,-0.56
2023-02-19T20:06:48.785Z,-0.57
2023-02-19T20:09:17.762Z,-0.57
2023-02-19T20:11:49.396Z,-0.58
2023-02-19T20:14:17.012Z,-0.57
2023-02-19T20:16:44.747Z,-0.58
2023-02-19T20:19:11.442Z,-0.56
2023-02-19T20:21:38.102Z,-0.57
2023-02-19T20:24:05.012Z,-0.55
2023-02-19T20:26:32.052Z,-0.57
2023-02-19T20:28:58.693Z,-0.54
2023-02-19T20:31:25.861Z,-0.55
2023-02-19T20:33:52.792Z,-0.53
2023-02-19T20:36:19.536Z,-0.53
2023-02-19T20:38:46.603Z,-0.51
2023-02-19T20:41:13.411Z,-0.51
2023-02-19T20:43:40.117Z,-0.50
2023-02-19T20:46:06.658Z,-0.51
2023-02-19T20:48:33.240Z,-0.53
2023-02-19T20:51:00.350Z,-0.53
2023-02-19T20:53:27.607Z,-0.55
2023-02-19T20:55:54.308Z,-0.55
2023-02-19T20:58:21.134Z,-0.57
2023-02-19T21:00:48.375Z,-0.59
2023-02-19T21:03:15.232Z,-0.61
2023-02-19T21:05:42.464Z,-0.65
2023-02-19T21:08:09.132Z,-0.66
2023-02-19T21:10:35.728Z,-0.69
2023-02-19T21:13:02.248Z,-0.71
2023-02-19T21:15:28.843Z,-0.74
2023-02-19T21:17:55.597Z,-0.77
2023-02-19T21:20:22.181Z,-0.79
2023-02-19T21:22:48.782Z,-0.80
2023-02-19T21:25:16.180Z,-0.80
2023-02-19T21:27:42.635Z,-0.84
2023-02-19T21:30:09.410Z,-0.85
2023-02-19T21:32:36.192Z,-0.87
2023-02-19T21:35:02.782Z,-0.89
2023-02-19T21:37:29.370Z,-0.90
2023-02-19T21:39:55.979Z,-0.91
2023-02-19T21:42:22.464Z,-0.92
2023-02-19T21:44:48.941Z,-0.93
2023-02-19T21:47:15.734Z,-0.94
2023-02-19T21:49:42.891Z,-0.95
2023-02-19T21:52:10.358Z,-0.98
2023-02-19T21:54:36.936Z,-0.97
2023-02-19T21:57:03.693Z,-0.97
2023-02-19T21:59:30.322Z,-0.96
2023-02-19T22:01:57.103Z,-0.92
2023-02-19T22:04:23.692Z,-0.91
2023-02-19T22:06:50.493Z,-0.92
2023-02-19T22:09:17.064Z,-0.94
2023-02-19T22:11:43.614Z,-0.93
2023-02-19T22:14:10.146Z,-0.94
2023-02-19T22:16:36.880Z,-0.96
2023-02-19T22:19:03.423Z,-0.98
2023-02-19T22:21:31.620Z,-1.01
2023-02-19T22:23:58.674Z,-1.03
2023-02-19T22:26:31.767Z,-1.05
2023-02-19T22:28:58.490Z,-1.10
2023-02-19T22:31:27.553Z,-1.11
2023-02-19T22:33:55.725Z,-1.14
2023-02-19T22:36:25.556Z,-1.15
2023-02-19T22:38:52.738Z,-1.13
2023-02-19T22:41:20.107Z,-1.09
2023-02-19T22:43:47.253Z,-1.05
2023-02-19T22:46:20.100Z,-1.01
2023-02-19T22:48:47.320Z,-0.97
2023-02-19T22:51:16.843Z,-0.96
2023-02-19T22:53:53.940Z,-0.94
2023-02-19T22:56:22.745Z,-0.93
2023-02-19T22:58:49.625Z,-0.89
2023-02-19T23:01:16.291Z,-0.87
2023-02-19T23:03:46.902Z,-0.87
2023-02-19T23:06:14.150Z,-0.88
2023-02-19T23:08:41.585Z,-0.89
2023-02-19T23:11:08.495Z,-0.91
2023-02-19T23:13:35.048Z,-0.95
2023-02-19T23:16:02.460Z,-0.98
2023-02-19T23:18:29.000Z,-1.01
2023-02-19T23:20:55.541Z,-1.02
2023-02-19T23:23:22.112Z,-1.01
2023-02-19T23:25:48.573Z,-1.02
2023-02-19T23:28:15.121Z,-1.00
2023-02-19T23:30:41.804Z,-0.98
2023-02-19T23:33:08.426Z,-0.96
2023-02-19T23:35:34.985Z,-0.96
2023-02-19T23:38:01.579Z,-0.96
2023-02-19T23:40:28.077Z,-0.98
2023-02-19T23:42:54.561Z,-1.00
2023-02-19T23:45:21.060Z,-1.01
2023-02-19T23:47:47.634Z,-1.04
2023-02-19T23:50:16.132Z,-1.06
2023-02-19T23:52:42.762Z,-1.09
2023-02-19T23:55:09.414Z,-1.15
2023-02-19T23:57:35.917Z,-1.19
